Time;durP1;ratioP1;P1;durP2;ratioP2;P2;SDS_P1;SDS_P2;PMS_P1;PMS_P2;Temp;Humidity;BMP_temperature;BMP_pressure;BME280_temperature;BME280_humidity;BME280_pressure;Samples;Min_cycle;Max_cycle;Signal;HPM_P1;HPM_P2
2022/06/19 00:01:09;;;;;;;;;24.25;18.50;;;;;29.19;99.43;100233.91;6275952;22;44686;-84
2022/06/19 00:03:40;;;;;;;;;18.25;15.25;;;;;28.79;100.00;100250.13;6274366;22;45162;-84
2022/06/19 00:06:05;;;;;;;;;17.80;12.60;;;;;28.24;100.00;100294.81;6276221;22;44654;-84
2022/06/19 00:08:31;;;;;;;;;16.75;15.25;;;;;27.70;100.00;100269.13;6250989;22;44770;-85
2022/06/19 00:10:58;;;;;;;;;17.25;16.50;;;;;27.47;100.00;100244.44;6283067;22;45258;-85
2022/06/19 00:13:23;;;;;;;;;14.50;12.50;;;;;27.21;100.00;100268.16;6278049;22;44946;-85
2022/06/19 00:15:49;;;;;;;;;20.25;18.25;;;;;27.08;100.00;100279.19;6284822;22;44768;-83
2022/06/19 00:18:15;;;;;;;;;21.00;18.25;;;;;27.10;100.00;100282.53;6286292;22;45098;-82
2022/06/19 00:20:40;;;;;;;;;21.00;21.00;;;;;26.56;100.00;100316.63;6286336;22;44896;-83
2022/06/19 00:23:06;;;;;;;;;17.00;16.25;;;;;25.88;100.00;100331.50;6279172;22;45174;-82
2022/06/19 00:25:34;;;;;;;;;19.20;16.40;;;;;25.71;100.00;100311.19;6274785;22;44793;-84
2022/06/19 00:27:59;;;;;;;;;21.00;20.50;;;;;25.43;100.00;100335.06;6275781;22;44664;-83
2022/06/19 00:30:25;;;;;;;;;17.50;16.00;;;;;25.11;100.00;100321.25;6275240;22;44864;-84
2022/06/19 00:32:50;;;;;;;;;21.00;18.00;;;;;25.04;100.00;100355.72;6277185;22;45254;-83
2022/06/19 00:35:15;;;;;;;;;12.75;9.50;;;;;24.57;100.00;100339.31;6281945;22;44772;-82
2022/06/19 00:37:41;;;;;;;;;16.00;12.75;;;;;24.10;100.00;100332.81;6284453;22;45276;-83
2022/06/19 00:40:10;;;;;;;;;17.00;16.00;;;;;23.80;100.00;100320.53;6276311;22;44878;-84
2022/06/19 00:42:35;;;;;;;;;21.25;18.50;;;;;23.70;100.00;100304.59;6275531;22;47306;-84
2022/06/19 00:45:02;;;;;;;;;15.50;15.00;;;;;23.75;100.00;100301.31;6248124;22;45151;-83
2022/06/19 00:47:35;;;;;;;;;17.60;16.00;;;;;23.60;100.00;100309.53;6275515;22;45206;-84
2022/06/19 00:50:23;;;;;;;;;16.00;14.25;;;;;23.60;100.00;100313.06;6248394;22;44848;-84
2022/06/19 00:52:49;;;;;;;;;17.50;11.50;;;;;23.38;100.00;100346.69;6275784;22;45066;-83
2022/06/19 00:55:19;;;;;;;;;17.40;10.80;;;;;23.21;100.00;100351.56;6275855;22;44747;-84
2022/06/19 00:57:50;;;;;;;;;15.80;10.20;;;;;22.88;100.00;100375.56;6253897;22;44928;-84
2022/06/19 01:00:29;;;;;;;;;16.50;16.00;;;;;22.25;100.00;100380.63;6276814;22;44582;-83
2022/06/19 01:03:03;;;;;;;;;19.75;11.50;;;;;22.07;100.00;100372.84;6275314;22;45231;-83
2022/06/19 01:05:30;;;;;;;;;15.25;11.50;;;;;21.70;100.00;100381.84;6250749;22;45305;-82
2022/06/19 01:07:59;;;;;;;;;14.40;11.20;;;;;21.42;100.00;100405.06;6278050;22;44765;-83
2022/06/19 01:10:26;;;;;;;;;10.00;9.50;;;;;21.15;100.00;100369.47;6276356;22;44779;-85
2022/06/19 01:12:52;;;;;;;;;18.50;11.25;;;;;20.99;100.00;100381.22;6282932;22;45300;-85
2022/06/19 01:15:21;;;;;;;;;5.50;4.50;;;;;20.79;100.00;100399.75;6281688;22;45372;-84
2022/06/19 01:17:49;;;;;;;;;13.80;9.40;;;;;20.62;100.00;100375.72;6277037;22;44691;-84
2022/06/19 01:20:16;;;;;;;;;11.25;8.25;;;;;20.52;100.00;100384.03;6278615;22;44716;-84
2022/06/19 01:22:54;;;;;;;;;10.75;10.25;;;;;20.39;100.00;100392.63;6283660;22;45065;-82
2022/06/19 01:25:24;;;;;;;;;14.80;13.80;;;;;20.09;100.00;100391.56;6263900;22;44717;-84
2022/06/19 01:30:41;;;;;;;;;16.75;13.75;;;;;19.45;100.00;100394.16;6278763;22;45330;-83
2022/06/19 01:33:13;;;;;;;;;15.75;13.75;;;;;19.30;100.00;100387.78;6277188;22;45249;-83
2022/06/19 01:35:41;;;;;;;;;20.00;12.50;;;;;19.12;100.00;100374.44;6281191;22;44730;-83
2022/06/19 01:38:13;;;;;;;;;20.25;17.25;;;;;18.92;100.00;100387.38;6282706;22;44619;-86
2022/06/19 01:40:42;;;;;;;;;18.75;17.25;;;;;18.92;100.00;100411.59;6276256;22;44798;-84
2022/06/19 01:43:09;;;;;;;;;16.50;14.75;;;;;18.91;100.00;100403.72;6275763;22;45134;-83
2022/06/19 01:45:39;;;;;;;;;14.25;14.25;;;;;18.70;100.00;100420.28;6250265;22;44799;-84
2022/06/19 01:48:05;;;;;;;;;17.00;16.25;;;;;18.61;100.00;100397.84;6282705;22;45225;-84
2022/06/19 01:50:32;;;;;;;;;20.25;15.75;;;;;18.66;100.00;100427.81;6275704;22;45246;-87
2022/06/19 01:53:05;;;;;;;;;20.25;18.00;;;;;18.50;100.00;100455.47;6276468;22;45263;-85
2022/06/19 01:55:32;;;;;;;;;18.50;13.50;;;;;18.46;100.00;100394.94;6275250;22;44688;-85
2022/06/19 01:57:59;;;;;;;;;18.00;16.25;;;;;18.43;100.00;100381.84;6248091;22;44683;-86
2022/06/19 02:00:28;;;;;;;;;19.25;17.25;;;;;18.33;100.00;100396.41;6276594;22;45574;-85
2022/06/19 02:03:20;;;;;;;;;13.50;13.50;;;;;18.28;100.00;100409.50;6248654;22;46470;-86
2022/06/19 02:05:46;;;;;;;;;17.25;16.00;;;;;18.20;100.00;100418.34;6285280;22;44825;-84
2022/06/19 02:08:14;;;;;;;;;23.75;21.50;;;;;17.95;100.00;100428.97;6287244;22;44682;-83
2022/06/19 02:10:41;;;;;;;;;24.50;16.25;;;;;17.84;100.00;100431.06;6296834;22;44900;-82
2022/06/19 02:13:09;;;;;;;;;15.25;13.25;;;;;17.79;100.00;100465.63;6291588;22;45201;-85
2022/06/19 02:15:36;;;;;;;;;20.00;15.50;;;;;17.77;100.00;100473.00;6288964;22;44638;-83
2022/06/19 02:18:05;;;;;;;;;21.00;17.00;;;;;17.72;100.00;100493.09;6291650;22;44776;-86
2022/06/19 02:20:31;;;;;;;;;19.00;15.00;;;;;17.78;100.00;100507.78;6234310;22;44865;-84
2022/06/19 02:22:57;;;;;;;;;13.25;9.00;;;;;17.87;100.00;100516.75;6286884;22;45041;-85
2022/06/19 02:25:23;;;;;;;;;13.75;13.75;;;;;17.92;100.00;100492.94;6261923;22;44699;-84
2022/06/19 02:27:48;;;;;;;;;13.25;12.75;;;;;17.93;100.00;100473.13;6285195;22;44788;-84
2022/06/19 02:30:16;;;;;;;;;12.50;7.75;;;;;17.86;100.00;100477.44;6283694;22;44678;-85
2022/06/19 02:32:51;;;;;;;;;15.50;12.50;;;;;17.93;100.00;100483.88;6282747;22;45183;-85
2022/06/19 02:35:20;;;;;;;;;16.25;12.75;;;;;17.86;100.00;100483.66;6279767;22;45428;-84
2022/06/19 02:37:52;;;;;;;;;18.50;13.00;;;;;17.88;100.00;100500.47;6251470;22;44737;-83
2022/06/19 02:40:59;;;;;;;;;15.25;9.50;;;;;17.89;100.00;100471.72;6283370;22;45312;-83
2022/06/19 02:43:30;;;;;;;;;18.25;14.50;;;;;17.94;100.00;100480.19;6189698;23;45103;-85
2022/06/19 02:45:56;;;;;;;;;19.50;14.25;;;;;17.88;100.00;100462.00;6192946;23;44882;-84
2022/06/19 02:48:30;;;;;;;;;16.00;13.50;;;;;17.83;100.00;100492.03;6185117;23;44690;-81
2022/06/19 02:50:58;;;;;;;;;17.00;12.50;;;;;17.91;100.00;100515.44;6188257;23;45185;-84
2022/06/19 02:53:24;;;;;;;;;13.00;11.50;;;;;17.79;100.00;100668.00;6185895;23;45458;-84
2022/06/19 02:55:49;;;;;;;;;17.25;15.00;;;;;17.84;100.00;100738.28;6184432;23;45145;-83
2022/06/19 02:58:18;;;;;;;;;21.00;16.25;;;;;17.84;100.00;100584.22;6184699;23;45339;-82
2022/06/19 03:00:44;;;;;;;;;14.00;14.00;;;;;17.87;100.00;100635.84;6187586;23;45208;-85
2022/06/19 03:03:30;;;;;;;;;16.00;8.75;;;;;17.91;100.00;100668.66;6184905;23;45248;-83
2022/06/19 03:05:56;;;;;;;;;21.00;18.00;;;;;17.86;100.00;100673.63;6189853;23;45464;-84
2022/06/19 03:08:21;;;;;;;;;24.25;20.25;;;;;17.71;100.00;100690.22;6182118;22;44670;-84
2022/06/19 03:10:46;;;;;;;;;20.00;18.25;;;;;17.67;100.00;100690.69;6183427;23;44824;-85
2022/06/19 03:13:12;;;;;;;;;16.50;15.75;;;;;17.71;100.00;100657.16;6181444;23;45319;-84
2022/06/19 03:15:37;;;;;;;;;26.50;13.75;;;;;17.84;100.00;100651.41;6157063;23;44704;-84
2022/06/19 03:18:03;;;;;;;;;24.50;19.75;;;;;17.84;100.00;100673.78;6183582;23;44728;-84
2022/06/19 03:20:29;;;;;;;;;13.75;12.25;;;;;17.87;100.00;100613.50;6220259;22;45275;-84
2022/06/19 03:22:55;;;;;;;;;20.25;20.25;;;;;17.80;100.00;100632.09;6252957;22;45203;-83
2022/06/19 03:25:22;;;;;;;;;18.25;16.50;;;;;17.69;100.00;100651.06;6247110;22;44788;-86
2022/06/19 03:27:48;;;;;;;;;15.75;14.00;;;;;17.71;100.00;100651.78;6248654;22;44798;-86
2022/06/19 03:30:17;;;;;;;;;21.75;15.00;;;;;17.83;100.00;100655.94;6226275;22;44816;-84
2022/06/19 03:32:42;;;;;;;;;18.25;14.25;;;;;17.67;100.00;100631.56;6255916;22;45574;-85
2022/06/19 03:35:08;;;;;;;;;14.75;13.75;;;;;17.63;100.00;100627.50;6254200;22;45369;-84
2022/06/19 03:37:34;;;;;;;;;24.00;13.75;;;;;17.53;100.00;100608.75;6266032;22;44730;-86
2022/06/19 03:39:59;;;;;;;;;18.75;14.50;;;;;17.60;100.00;100628.66;6270575;22;44789;-85
2022/06/19 03:42:25;;;;;;;;;24.50;15.25;;;;;17.57;100.00;100645.06;6270308;22;45148;-85
2022/06/19 03:44:50;;;;;;;;;10.00;7.50;;;;;17.59;100.00;100645.75;6269741;22;44804;-85
2022/06/19 03:47:22;;;;;;;;;13.50;11.50;;;;;17.69;100.00;100651.06;6269605;22;44671;-84
2022/06/19 03:49:48;;;;;;;;;10.75;8.75;;;;;17.70;100.00;100664.38;6231493;22;44769;-84
2022/06/19 03:52:14;;;;;;;;;16.25;16.25;;;;;17.61;100.00;100657.22;6246048;22;45055;-85
2022/06/19 03:54:40;;;;;;;;;9.25;7.25;;;;;17.60;100.00;100634.03;6254670;22;45170;-84
2022/06/19 03:57:06;;;;;;;;;17.75;14.00;;;;;17.58;100.00;100645.91;6263269;22;45304;-85
2022/06/19 03:59:31;;;;;;;;;16.50;15.50;;;;;17.55;100.00;100639.00;6263713;22;45191;-83
2022/06/19 04:01:57;;;;;;;;;20.00;16.50;;;;;17.57;100.00;100661.19;6260140;22;45061;-82
2022/06/19 04:04:23;;;;;;;;;19.25;17.50;;;;;17.59;100.00;100712.06;6227101;22;45168;-85
2022/06/19 04:06:50;;;;;;;;;19.25;16.25;;;;;17.56;100.00;100776.84;6249010;22;45081;-85
2022/06/19 04:09:17;;;;;;;;;18.75;17.25;;;;;17.54;100.00;100819.97;6223760;22;44809;-85
2022/06/19 04:11:43;;;;;;;;;18.75;17.50;;;;;17.30;100.00;100753.31;6243854;22;45404;-83
2022/06/19 04:14:13;;;;;;;;;15.50;14.00;;;;;17.35;100.00;100653.50;6234516;22;45444;-84
2022/06/19 04:16:39;;;;;;;;;18.50;16.25;;;;;17.31;100.00;100601.97;6245338;22;45248;-84
2022/06/19 04:19:06;;;;;;;;;21.75;18.25;;;;;16.98;100.00;100598.03;6245861;22;45085;-85
2022/06/19 04:21:35;;;;;;;;;7.75;7.75;;;;;16.83;100.00;100573.50;6244721;22;45340;-85
2022/06/19 04:24:04;;;;;;;;;27.50;22.50;;;;;16.59;100.00;100551.66;6245800;22;44683;-83
2022/06/19 04:26:33;;;;;;;;;26.00;18.25;;;;;16.48;100.00;100514.28;6246034;22;45425;-85
2022/06/19 04:28:58;;;;;;;;;20.50;20.50;;;;;16.47;100.00;100559.03;6247421;22;44813;-84
2022/06/19 04:31:26;;;;;;;;;18.00;18.00;;;;;16.41;100.00;100576.53;6245828;22;45174;-84
2022/06/19 04:33:52;;;;;;;;;19.75;17.75;;;;;16.37;100.00;100593.06;6246825;22;44718;-84
2022/06/19 04:36:20;;;;;;;;;27.25;23.75;;;;;16.34;100.00;100607.63;6251453;22;44742;-82
2022/06/19 04:38:48;;;;;;;;;23.25;20.25;;;;;16.32;100.00;100581.94;6250997;22;44820;-81
2022/06/19 04:41:26;;;;;;;;;24.25;19.25;;;;;16.45;100.00;100586.00;6247954;22;46122;-83
2022/06/19 04:43:52;;;;;;;;;14.25;14.25;;;;;16.43;100.00;100568.34;6250075;22;44711;-82
2022/06/19 04:46:19;;;;;;;;;12.75;7.00;;;;;16.40;100.00;100571.34;6248855;22;45229;-84
2022/06/19 04:48:45;;;;;;;;;19.25;17.75;;;;;16.33;100.00;100632.72;6245533;22;44743;-82
2022/06/19 04:51:12;;;;;;;;;19.25;13.75;;;;;16.30;100.00;100621.44;6244775;22;45093;-83
2022/06/19 04:53:38;;;;;;;;;15.75;13.00;;;;;16.36;100.00;100578.81;6253102;22;45808;-86
2022/06/19 04:56:05;;;;;;;;;23.25;14.75;;;;;16.35;100.00;100622.72;6247333;22;45230;-83
2022/06/19 04:58:31;;;;;;;;;21.50;15.00;;;;;16.35;100.00;100581.66;6246185;22;44828;-83
2022/06/19 05:00:56;;;;;;;;;18.00;17.25;;;;;16.39;100.00;100573.19;6247460;22;47030;-85
2022/06/19 05:03:23;;;;;;;;;17.25;14.00;;;;;16.40;100.00;100604.34;6248156;22;45201;-85
2022/06/19 05:05:55;;;;;;;;;14.75;12.25;;;;;16.42;100.00;100621.13;6246478;22;45189;-84
2022/06/19 05:08:22;;;;;;;;;12.25;9.50;;;;;16.49;100.00;100637.50;6248643;22;44724;-83
2022/06/19 05:10:49;;;;;;;;;15.75;9.50;;;;;16.52;100.00;100637.22;6247928;22;45527;-83
2022/06/19 05:13:22;;;;;;;;;14.50;12.25;;;;;16.61;100.00;100673.06;6250639;22;45223;-84
2022/06/19 05:15:49;;;;;;;;;14.75;11.75;;;;;16.62;100.00;100637.19;6249378;22;44618;-84
2022/06/19 05:18:16;;;;;;;;;13.00;9.25;;;;;16.56;100.00;100525.97;6246673;22;45457;-85
2022/06/19 05:20:42;;;;;;;;;13.00;10.25;;;;;16.51;100.00;100517.53;6246379;22;45060;-85
2022/06/19 05:23:09;;;;;;;;;13.50;11.50;;;;;16.28;100.00;100486.69;6244412;22;45294;-84
2022/06/19 05:25:36;;;;;;;;;14.50;13.75;;;;;16.14;100.00;100472.75;6245498;22;44909;-84
2022/06/19 05:28:02;;;;;;;;;23.25;17.75;;;;;16.15;100.00;100445.00;6248536;22;44782;-86
2022/06/19 05:30:28;;;;;;;;;11.00;11.00;;;;;16.09;100.00;100412.53;6246551;22;45238;-86
2022/06/19 05:32:53;;;;;;;;;23.00;17.75;;;;;16.09;100.00;100493.78;6245500;22;44728;-84
2022/06/19 05:35:19;;;;;;;;;11.75;10.75;;;;;16.12;100.00;100528.34;6246267;22;44729;-84
2022/06/19 05:37:46;;;;;;;;;17.75;12.25;;;;;16.15;100.00;100500.44;6243036;22;44816;-84
2022/06/19 05:40:12;;;;;;;;;14.75;12.25;;;;;16.15;100.00;100505.78;6249617;22;45387;-84
2022/06/19 05:42:37;;;;;;;;;8.25;7.50;;;;;16.11;100.00;100532.03;6258537;22;44781;-82
2022/06/19 05:45:05;;;;;;;;;15.00;11.75;;;;;16.12;100.00;100533.72;6268688;22;45179;-86
2022/06/19 05:47:30;;;;;;;;;9.25;7.50;;;;;16.07;100.00;100535.13;6259587;22;44832;-83
2022/06/19 05:49:56;;;;;;;;;8.00;6.75;;;;;16.04;100.00;100524.69;6246742;22;45304;-85
2022/06/19 05:52:24;;;;;;;;;11.75;11.75;;;;;15.99;100.00;100525.13;6247877;22;45174;-85
2022/06/19 05:54:51;;;;;;;;;14.25;10.25;;;;;16.03;100.00;100498.88;6252446;22;45333;-85
2022/06/19 05:57:16;;;;;;;;;4.00;3.00;;;;;16.08;100.00;100478.69;6243725;22;45338;-81
2022/06/19 05:59:42;;;;;;;;;5.50;5.25;;;;;16.23;100.00;100484.44;6241674;22;45436;-83
2022/06/19 06:02:09;;;;;;;;;12.25;11.75;;;;;16.26;100.00;100477.97;6249750;22;44770;-84
2022/06/19 06:04:35;;;;;;;;;20.25;12.75;;;;;16.31;100.00;100446.19;6249944;22;45321;-84
2022/06/19 06:07:00;;;;;;;;;8.00;7.75;;;;;16.32;100.00;100408.50;6250324;22;45382;-84
2022/06/19 06:09:25;;;;;;;;;9.00;6.25;;;;;16.31;100.00;100406.00;6247229;22;46257;-83
2022/06/19 06:11:51;;;;;;;;;5.50;5.25;;;;;16.28;100.00;100425.88;6244196;22;44800;-85
2022/06/19 06:14:16;;;;;;;;;12.25;12.25;;;;;16.28;100.00;100444.66;6271291;22;45070;-85
2022/06/19 06:16:41;;;;;;;;;11.50;8.25;;;;;16.48;100.00;100474.06;6248273;22;45179;-84
2022/06/19 06:19:07;;;;;;;;;7.50;7.50;;;;;16.50;100.00;100485.50;6276005;22;45085;-85
2022/06/19 06:21:32;;;;;;;;;14.75;11.00;;;;;16.49;100.00;100483.78;6247711;22;45172;-83
2022/06/19 06:23:57;;;;;;;;;13.00;8.00;;;;;16.49;100.00;100535.63;6247908;22;45259;-83
2022/06/19 06:26:27;;;;;;;;;6.25;6.25;;;;;16.55;100.00;100577.09;6275679;22;45333;-83
2022/06/19 06:28:56;;;;;;;;;12.50;11.25;;;;;16.47;100.00;100572.44;6275312;22;44955;-83
2022/06/19 06:31:22;;;;;;;;;20.00;20.00;;;;;16.51;100.00;100586.41;6278417;22;45274;-83
2022/06/19 06:33:47;;;;;;;;;13.75;13.50;;;;;16.53;100.00;100619.28;6284229;22;45222;-83
2022/06/19 06:36:13;;;;;;;;;12.75;7.25;;;;;16.64;100.00;100592.31;6256274;22;45395;-83
2022/06/19 06:38:39;;;;;;;;;9.00;8.75;;;;;16.73;100.00;100590.59;6279279;22;45205;-83
2022/06/19 06:41:07;;;;;;;;;12.50;8.50;;;;;16.85;100.00;100610.91;6276173;22;45001;-85
2022/06/19 06:43:36;;;;;;;;;5.75;5.75;;;;;16.75;100.00;100553.75;6248082;22;45282;-85
2022/06/19 06:46:06;;;;;;;;;14.25;8.75;;;;;16.73;100.00;100547.69;6249283;22;45528;-84
2022/06/19 06:48:31;;;;;;;;;14.50;7.00;;;;;16.74;100.00;100552.06;6254062;22;47269;-86
2022/06/19 06:50:57;;;;;;;;;9.25;7.75;;;;;16.80;100.00;100543.44;6255375;22;44725;-85
2022/06/19 06:53:22;;;;;;;;;17.00;8.25;;;;;16.79;100.00;100494.28;6279080;22;45254;-86
2022/06/19 06:55:48;;;;;;;;;8.00;6.25;;;;;16.80;100.00;100466.47;6248450;22;44877;-86
2022/06/19 06:58:13;;;;;;;;;7.25;7.25;;;;;16.87;100.00;100474.75;6254683;22;46744;-86
2022/06/19 07:00:39;;;;;;;;;8.75;6.00;;;;;16.74;100.00;100423.31;6249658;22;45254;-86
2022/06/19 07:03:05;;;;;;;;;9.00;7.75;;;;;16.58;100.00;100427.44;6275420;22;45173;-85
2022/06/19 07:05:31;;;;;;;;;14.75;10.00;;;;;16.59;100.00;100453.28;6247670;22;44816;-84
2022/06/19 07:07:56;;;;;;;;;8.75;7.75;;;;;16.70;100.00;100469.16;6274914;22;45216;-86
2022/06/19 07:10:22;;;;;;;;;14.50;9.25;;;;;16.74;100.00;100515.34;6248672;22;44708;-84
2022/06/19 07:12:48;;;;;;;;;8.00;7.25;;;;;16.79;100.00;100493.47;6258183;22;45147;-85
2022/06/19 07:15:15;;;;;;;;;5.75;4.25;;;;;16.76;100.00;100440.94;6279601;22;45444;-83
2022/06/19 07:17:40;;;;;;;;;12.50;10.00;;;;;16.70;100.00;100418.19;6252900;22;47679;-82
2022/06/19 07:20:06;;;;;;;;;19.00;15.25;;;;;16.64;100.00;100504.63;6280194;22;45476;-83
2022/06/19 07:22:32;;;;;;;;;10.75;5.75;;;;;16.61;100.00;100619.41;6248261;22;44834;-84
2022/06/19 07:24:58;;;;;;;;;11.00;8.75;;;;;16.63;100.00;100671.06;6277586;22;44784;-83
2022/06/19 07:27:23;;;;;;;;;11.75;8.75;;;;;16.63;100.00;100647.81;6279742;22;46010;-83
2022/06/19 07:29:49;;;;;;;;;10.75;8.00;;;;;16.63;100.00;100641.56;6247773;22;45285;-83
2022/06/19 07:32:15;;;;;;;;;12.75;9.00;;;;;16.64;100.00;100660.22;6275258;22;45297;-83
2022/06/19 07:34:41;;;;;;;;;9.75;9.75;;;;;16.74;100.00;100672.81;6275480;22;45381;-83
2022/06/19 07:37:07;;;;;;;;;7.00;7.00;;;;;16.61;100.00;100730.22;6274636;22;45349;-83
2022/06/19 07:39:34;;;;;;;;;7.00;7.00;;;;;16.52;100.00;100763.25;6275283;22;45262;-84
2022/06/19 07:42:00;;;;;;;;;11.75;8.75;;;;;16.48;100.00;100747.59;6248010;22;44716;-83
2022/06/19 07:44:26;;;;;;;;;14.75;7.50;;;;;16.67;100.00;100737.69;6248635;22;45075;-84
2022/06/19 07:52:21;;;;;;;;;11.75;10.50;;;;;16.86;100.00;100703.81;6276514;22;45290;-84
2022/06/19 07:54:47;;;;;;;;;11.75;9.00;;;;;16.95;100.00;100711.00;6278446;22;44705;-83
2022/06/19 07:57:12;;;;;;;;;6.50;6.00;;;;;16.96;100.00;100699.28;6248591;22;46659;-84
2022/06/19 07:59:38;;;;;;;;;8.50;7.50;;;;;17.21;100.00;100725.50;6278785;22;44824;-83
2022/06/19 08:02:03;;;;;;;;;9.00;8.25;;;;;17.22;100.00;100766.63;6284358;22;44901;-84
2022/06/19 08:04:29;;;;;;;;;5.25;4.50;;;;;17.20;100.00;100795.44;6278883;22;44717;-84
2022/06/19 08:06:54;;;;;;;;;10.00;8.25;;;;;17.06;100.00;100764.53;6275392;22;45257;-84
2022/06/19 08:09:19;;;;;;;;;9.00;8.25;;;;;17.10;100.00;100757.88;6276998;22;44645;-85
2022/06/19 08:11:45;;;;;;;;;11.75;11.75;;;;;17.05;100.00;100745.88;6279893;22;45166;-83
2022/06/19 08:14:10;;;;;;;;;10.50;8.75;;;;;17.01;100.00;100737.28;6280093;22;45376;-84
2022/06/19 08:16:35;;;;;;;;;15.25;9.50;;;;;17.02;100.00;100711.28;6249670;22;48154;-85
2022/06/19 08:19:02;;;;;;;;;9.75;8.00;;;;;17.09;100.00;100694.44;6276004;22;45385;-85
2022/06/19 08:21:29;;;;;;;;;10.75;8.25;;;;;17.11;100.00;100695.13;6276609;22;44597;-84
2022/06/19 08:23:54;;;;;;;;;7.25;5.75;;;;;17.24;100.00;100702.03;6253768;22;44776;-84
2022/06/19 08:26:20;;;;;;;;;13.00;13.00;;;;;17.34;100.00;100686.72;6276359;22;45410;-84
2022/06/19 08:31:19;;;;;;;;;8.25;8.25;;;;;17.40;100.00;100616.31;6275133;22;45097;-83
2022/06/19 08:33:45;;;;;;;;;8.00;7.75;;;;;17.54;100.00;100618.50;6275031;22;44683;-84
2022/06/19 08:36:11;;;;;;;;;10.25;9.00;;;;;17.60;100.00;100595.53;6275101;22;45154;-84
2022/06/19 08:38:42;;;;;;;;;6.80;6.80;;;;;17.78;100.00;100587.53;6276816;22;45340;-84
2022/06/19 08:41:07;;;;;;;;;10.60;7.60;;;;;17.73;100.00;100567.34;6254840;22;44787;-85
2022/06/19 08:43:51;;;;;;;;;11.50;9.00;;;;;17.68;100.00;100568.78;6284340;22;45162;-84
2022/06/19 08:46:33;;;;;;;;;11.50;8.00;;;;;17.79;100.00;100536.31;6248624;22;46477;-85
2022/06/19 08:49:21;;;;;;;;;15.20;11.60;;;;;17.64;100.00;100525.25;6250338;22;45371;-85
2022/06/19 08:52:20;;;;;;;;;11.00;9.00;;;;;17.84;100.00;100551.97;6278655;22;44697;-84
2022/06/19 08:55:23;;;;;;;;;9.75;8.50;;;;;18.08;100.00;100575.53;6254643;22;45151;-85
2022/06/19 08:58:13;;;;;;;;;13.75;10.50;;;;;18.02;100.00;100558.19;6280357;22;45077;-84
2022/06/19 09:01:05;;;;;;;;;12.60;11.20;;;;;17.83;100.00;100550.31;6253506;22;45283;-84
2022/06/19 09:06:49;;;;;;;;;14.25;11.25;;;;;18.23;100.00;100555.19;6277852;22;45208;-85
2022/06/19 09:09:49;;;;;;;;;13.50;10.25;;;;;18.86;100.00;100581.84;6276963;22;45553;-85
2022/06/19 09:13:04;;;;;;;;;17.00;10.60;;;;;19.55;100.00;100609.56;6251074;22;44664;-85
2022/06/19 09:15:43;;;;;;;;;18.60;14.60;;;;;20.04;100.00;100628.56;6275610;22;44685;-83
2022/06/19 09:18:49;;;;;;;;;15.75;13.50;;;;;20.43;100.00;100660.28;6268732;22;44773;-85
2022/06/19 09:21:49;;;;;;;;;15.75;13.25;;;;;20.90;100.00;100670.44;6294507;22;45327;-87
2022/06/19 09:24:36;;;;;;;;;21.00;17.00;;;;;21.20;100.00;100680.47;6254949;22;44582;-87
2022/06/19 09:27:03;;;;;;;;;15.20;14.60;;;;;21.28;100.00;100672.34;6279092;22;44698;-87
2022/06/19 09:29:34;;;;;;;;;17.25;16.25;;;;;21.49;100.00;100657.44;6250730;22;44910;-86
2022/06/19 09:32:13;;;;;;;;;18.00;14.25;;;;;21.89;100.00;100661.78;6278163;22;45283;-88
2022/06/19 09:34:49;;;;;;;;;17.60;15.40;;;;;22.14;100.00;100680.59;6249660;22;44774;-86
2022/06/19 09:37:30;;;;;;;;;19.50;16.00;;;;;22.58;100.00;100678.09;6250456;22;44875;-87
2022/06/19 09:40:15;;;;;;;;;17.25;16.75;;;;;22.82;100.00;100683.28;6282100;22;44761;-88
2022/06/19 09:42:50;;;;;;;;;21.00;15.00;;;;;22.83;100.00;100670.56;6254259;22;45408;-87
2022/06/19 09:45:22;;;;;;;;;15.80;13.60;;;;;22.81;100.00;100670.72;6249935;22;44729;-87
2022/06/19 09:47:50;;;;;;;;;15.75;15.75;;;;;22.61;100.00;100672.28;6251244;22;44681;-87
2022/06/19 09:50:26;;;;;;;;;18.75;16.75;;;;;22.24;100.00;100665.81;6279967;22;44806;-89
2022/06/19 09:53:04;;;;;;;;;25.00;21.50;;;;;21.99;100.00;100665.09;6287094;22;45427;-91
2022/06/19 09:55:37;;;;;;;;;18.80;17.80;;;;;21.77;100.00;100665.94;6255812;22;44757;-87
2022/06/19 09:58:12;;;;;;;;;12.20;10.80;;;;;21.58;100.00;100674.47;6258815;22;44727;-88
2022/06/19 10:00:40;;;;;;;;;17.00;16.25;;;;;21.69;100.00;100666.78;6288576;22;45408;-88
2022/06/19 10:03:41;;;;;;;;;22.25;19.75;;;;;21.27;100.00;100675.22;6280334;22;45108;-87
2022/06/19 10:06:33;;;;;;;;;19.00;17.25;;;;;21.27;100.00;100676.06;6278411;22;45453;-88
2022/06/19 10:09:07;;;;;;;;;20.50;19.50;;;;;21.02;100.00;100675.28;6278885;22;44634;-89
2022/06/19 10:11:39;;;;;;;;;23.00;20.00;;;;;20.99;100.00;100647.78;6250648;22;45156;-89
2022/06/19 10:14:23;;;;;;;;;19.25;19.25;;;;;20.83;100.00;100661.31;6277639;22;44930;-87
2022/06/19 10:17:03;;;;;;;;;23.00;19.75;;;;;20.85;100.00;100652.03;6249767;22;44690;-88
2022/06/19 10:19:52;;;;;;;;;21.75;18.25;;;;;20.85;100.00;100643.94;6278277;22;45194;-88
2022/06/19 10:22:30;;;;;;;;;17.25;15.25;;;;;20.85;100.00;100643.09;6233399;22;44840;-89
2022/06/19 10:25:05;;;;;;;;;24.75;19.00;;;;;20.70;100.00;100649.19;6250952;22;45235;-90
2022/06/19 10:27:42;;;;;;;;;22.25;18.75;;;;;20.88;100.00;100642.72;6253385;22;44730;-87
2022/06/19 10:30:12;;;;;;;;;27.25;24.75;;;;;20.70;100.00;100613.25;6282726;22;44580;-88
2022/06/19 10:32:56;;;;;;;;;21.00;19.00;;;;;20.72;100.00;100617.44;6258094;22;44706;-88
2022/06/19 10:35:37;;;;;;;;;17.00;14.75;;;;;20.88;100.00;100607.63;6260354;22;45110;-90
2022/06/19 10:38:33;;;;;;;;;18.00;15.00;;;;;21.09;100.00;100593.56;6260286;22;44588;-89
2022/06/19 10:44:23;;;;;;;;;22.00;21.00;;;;;21.37;100.00;100623.69;6228424;22;45251;-89
2022/06/19 10:47:12;;;;;;;;;28.50;25.00;;;;;21.11;100.00;100619.38;6224229;22;45219;-88
2022/06/19 10:49:51;;;;;;;;;21.25;19.50;;;;;20.82;100.00;100619.13;6206430;22;44719;-87
2022/06/19 10:52:33;;;;;;;;;23.00;23.00;;;;;21.09;100.00;100616.00;6221571;22;45212;-89
2022/06/19 10:55:11;;;;;;;;;25.00;21.00;;;;;21.23;100.00;100614.44;6227421;22;44706;-90
2022/06/19 10:58:05;;;;;;;;;25.75;23.75;;;;;21.00;100.00;100612.50;6194075;22;45516;-88
2022/06/19 11:00:41;;;;;;;;;20.50;15.50;;;;;21.08;100.00;100608.94;6189386;23;44786;-88
2022/06/19 11:06:30;;;;;;;;;20.75;19.75;;;;;21.38;100.00;100618.13;6206143;23;44698;-87
2022/06/19 11:08:59;;;;;;;;;20.25;19.75;;;;;21.58;100.00;100631.22;6171111;23;45209;-88
2022/06/19 11:11:28;;;;;;;;;20.50;19.50;;;;;21.32;100.00;100604.47;6164087;23;44662;-87
2022/06/19 11:14:07;;;;;;;;;22.50;20.25;;;;;21.25;100.00;100615.94;6166837;23;44822;-87
2022/06/19 11:16:34;;;;;;;;;14.75;11.50;;;;;21.54;100.00;100609.09;6162659;23;44921;-88
2022/06/19 11:19:00;;;;;;;;;26.50;23.75;;;;;21.48;100.00;100610.63;6188294;23;45483;-87
2022/06/19 11:21:33;;;;;;;;;35.50;27.75;;;;;21.20;100.00;100629.13;6188791;23;44628;-86
2022/06/19 11:24:01;;;;;;;;;13.75;11.50;;;;;20.88;100.00;100640.88;6185095;23;45136;-86
2022/06/19 11:26:35;;;;;;;;;17.75;17.25;;;;;21.18;100.00;100639.28;6186810;23;44755;-88
2022/06/19 11:29:13;;;;;;;;;17.75;17.50;;;;;21.49;100.00;100606.91;6159885;23;46764;-88
2022/06/19 11:31:59;;;;;;;;;25.25;23.50;;;;;21.70;100.00;100622.50;6186454;23;44672;-88
2022/06/19 11:34:44;;;;;;;;;26.50;24.25;;;;;21.43;100.00;100617.59;6190611;23;44674;-85
2022/06/19 11:37:28;;;;;;;;;22.25;19.50;;;;;21.42;100.00;100607.78;6218269;22;44739;-89
2022/06/19 11:40:08;;;;;;;;;23.50;23.50;;;;;21.35;100.00;100631.97;6252583;22;46810;-88